KLXT

Lee's Summit Municipal Airport

Lee's Summit, Missouri, USA
METAR KLXT 221453Z AUTO 23009KT 10SM CLR 13/07 A3015 RMK AO2 SLP210 T01330067 53010
Observed Flight Rules
Oct-22 @ 14:53 UTC (9 minutes ago) Visual Flight Rules
Wind Visibility Clouds
230° at 9 knots 10 miles
  • Clear skies
Temperatures Readings
Current 13°C / 55°F
Dewpoint 7°C / 45°F
Humidity 67%
Altimeter 30.15" Hg
Pressure 1021 hPa
Elevation 306
METAR KLXT 221453Z AUTO 23009KT 10SM CLR 13/07 A3015 RMK AO2 SLP210 T01330067 53010
Observed Flight Rules
Oct-22 @ 14:53 UTC
(9 minutes ago)
VFR
Wind Visibility
230° at 9 knots 10 miles
Clouds
  • Clear skies
Temperature Dewpoint
13°C / 55°F 7°C / 45°F
Humidity Altimeter Pressure
67% 30.15" Hg 1021 hPa